SBKPSBFN

Guest
Details From SBKP - Sao Paulo Viracopos
To SBFN - Fernando De Noronha
Flight Number -
Tags Generated
Created
Modified
Stats Distance 1,433 nm / 2,654 km
Max Altitude 0 ft / 0 m
Waypoints 5
Social Downloads 0
Likes 0
Share VATSIM

Download

Looking for another format? Having issues loading an existing format? Contact us
Advertisement - Login to hide

Notes

Generated

Route

SBKP VISTA JPS NOR SBFN

ID Type Via Altitude Latitude Longitude Leg Dist Tot Dist Heading (true) Name
O SBKP APT - 0 ft / 0 m -22.99843˚ -47.14702˚ - 0 nm - -
VISTA FIX - 0 ft / 0 m -19.56200˚ -44.31400˚ 260 nm 260 nm 38° / 37° -
JPS NDB - 0 ft / 0 m -7.14050˚ -34.95250˚ 924 nm 1184 nm 37° / 35° JOAO PESSOA NDB
NOR NDB - 0 ft / 0 m -3.85839˚ -32.42824˚ 248 nm 1432 nm 38° / 37° NORONHA NDB
O SBFN APT - 0 ft / 0 m -3.85435˚ -32.43165˚ 0 nm 1433 nm 320° / 320° -

Altitude Profile

Advertisement - Login to hide

Weather


0- 5 10 15 20 25 30 35+ Temperature / ° C

Clouds and Precipitation
Forecast for 2018-05-26 06:00 UTC. Updated 5 hours ago

Ground ~20,000 ft ~40,000 ft Winds

SBKP

Details ICAO SBKP (VCP)
Name Sao Paulo Viracopos
Region Brazil
Timezone America/Sao_Paulo (UTC-3.0)
Stats Elevation 2,170 ft / 661 m (AMSL)
Location -23.007383° -47.134522°
Runways 1
Magnetic Variation 21.250° W

METAR

SBKP 261000Z 11007KT 5000 BR NSC 14/13 Q1022

Decode

TAF

TAF SBKP 260201Z 2606/2706 12010KT 8000 NSCTN15/2608Z TX25/2618Z BECMG 2610/2612 10008KT BECMG 2613/2615 06002KT CAVOK BECMG 2617/2619 FEW035 BECMG 2619/2621 14007KT BECMG 2621/2623 13012KT RMK PGM

Decode

Departure Runways

ID Width Length Bearing (true) Bearing (mag) Surface Threshold Offset Overrun Length
15 148 ft / 45 m 10,639 ft / 3,243 m 127.91° 149.16° Asphalt 0 ft / 0 m 205 ft / 62 m
33 148 ft / 45 m 10,639 ft / 3,243 m 307.90° 329.15° Asphalt 0 ft / 0 m 205 ft / 62 m

SBFN

Details ICAO SBFN (FEN)
Name Fernando De Noronha
Region Brazil
Timezone America/Noronha (UTC-2.0)
Stats Elevation 180 ft / 55 m (AMSL)
Location -3.854928° -32.423335°
Runways 1
Magnetic Variation 20.019° W

METAR

SBFN 261000Z 17005KT 9999 SCT015 SCT030 26/24 Q1014

Decode

TAF

TAF SBFN 260400Z 2606/2618 14010KT 8000 SCT010 BKN016 TN24/2608Z TX28/2615Z PROB30 TEMPO 2608/2610 4000 SHRA SCT007 BKN010 RMK PEI

Decode

Destination Runways

ID Width Length Bearing (true) Bearing (mag) Surface Threshold Offset Overrun Length
12 148 ft / 45 m 6,070 ft / 1,850 m 93.99° 114.01° Asphalt 0 ft / 0 m 0 ft / 0 m
30 148 ft / 45 m 6,070 ft / 1,850 m 273.98° 294.00° Asphalt 0 ft / 0 m 0 ft / 0 m

Popular Alternatives